createdAt,value
2018-02-19T00:00:58.017Z,14.70
2018-02-19T00:03:25.563Z,15.30
2018-02-19T00:05:53.102Z,14.10
2018-02-19T00:08:20.664Z,13.90
2018-02-19T00:10:48.204Z,14.67
2018-02-19T00:13:15.753Z,14.50
2018-02-19T00:15:43.593Z,14.60
2018-02-19T00:18:14.659Z,13.80
2018-02-19T00:20:42.196Z,14.20
2018-02-19T00:23:09.754Z,14.60
2018-02-19T00:25:37.291Z,15.27
2018-02-19T00:28:04.828Z,14.90
2018-02-19T00:30:32.406Z,14.70
2018-02-19T00:32:59.917Z,15.23
2018-02-19T00:35:27.448Z,14.27
2018-02-19T00:37:55.007Z,14.70
2018-02-19T00:40:22.902Z,15.27
2018-02-19T00:42:50.427Z,14.40
2018-02-19T00:45:17.989Z,15.70
2018-02-19T00:47:45.526Z,13.87
2018-02-19T00:50:13.056Z,14.13
2018-02-19T00:52:40.647Z,14.47
2018-02-19T00:55:08.458Z,15.10
2018-02-19T00:57:36.024Z,14.70
2018-02-19T01:00:03.883Z,15.17
2018-02-19T01:02:31.453Z,14.83
2018-02-19T01:04:58.980Z,14.53
2018-02-19T01:07:26.533Z,14.97
2018-02-19T01:09:54.083Z,14.67
2018-02-19T01:12:21.628Z,14.40
2018-02-19T01:14:49.212Z,14.80
2018-02-19T01:17:16.738Z,15.13
2018-02-19T01:19:44.262Z,15.27
2018-02-19T01:22:11.828Z,14.80
2018-02-19T01:24:39.344Z,15.03
2018-02-19T01:27:06.889Z,14.10
2018-02-19T01:29:34.450Z,14.50
2018-02-19T01:32:01.981Z,13.60
2018-02-19T01:34:29.507Z,14.40
2018-02-19T01:36:57.065Z,14.70
2018-02-19T01:39:24.592Z,13.73
2018-02-19T01:41:52.192Z,15.00
2018-02-19T01:44:19.752Z,15.03
2018-02-19T01:46:47.278Z,14.00
2018-02-19T01:49:14.813Z,14.00
2018-02-19T01:51:42.670Z,13.67
2018-02-19T01:54:10.224Z,13.67
2018-02-19T01:56:37.749Z,13.97
2018-02-19T01:59:05.303Z,13.67
2018-02-19T02:01:32.868Z,14.47
2018-02-19T02:04:00.419Z,14.60
2018-02-19T02:06:27.994Z,13.80
2018-02-19T02:08:55.516Z,13.17
2018-02-19T02:11:23.047Z,14.27
2018-02-19T02:13:50.599Z,13.97
2018-02-19T02:16:18.123Z,12.87
2018-02-19T02:18:45.650Z,13.50
2018-02-19T02:21:13.333Z,13.03
2018-02-19T02:23:40.831Z,13.10
2018-02-19T02:26:08.613Z,13.70
2018-02-19T02:28:36.174Z,13.47
2018-02-19T02:31:03.743Z,13.33
2018-02-19T02:33:31.287Z,13.70
2018-02-19T02:35:58.873Z,13.73
2018-02-19T02:38:26.395Z,13.63
2018-02-19T02:40:54.178Z,13.60
2018-02-19T02:43:22.150Z,13.70
2018-02-19T02:45:49.676Z,13.77
2018-02-19T02:48:17.213Z,13.30
2018-02-19T02:50:44.774Z,13.90
2018-02-19T02:53:12.300Z,13.90
2018-02-19T02:55:39.844Z,13.97
2018-02-19T02:58:07.395Z,14.13
2018-02-19T03:00:34.957Z,13.63
2018-02-19T03:03:02.494Z,14.23
2018-02-19T03:05:30.052Z,13.80
2018-02-19T03:07:57.581Z,14.07
2018-02-19T03:10:25.415Z,14.20
2018-02-19T03:12:52.976Z,13.47
2018-02-19T03:15:20.498Z,14.67
2018-02-19T03:17:48.407Z,14.27
2018-02-19T03:20:15.963Z,13.53
2018-02-19T03:22:43.495Z,13.87
2018-02-19T03:25:11.293Z,13.03
2018-02-19T03:27:39.183Z,14.30
2018-02-19T03:30:06.715Z,14.00
2018-02-19T03:32:34.242Z,15.90
2018-02-19T03:35:01.811Z,14.70
2018-02-19T03:37:29.341Z,13.90
2018-02-19T03:39:56.850Z,14.30
2018-02-19T03:42:24.434Z,13.73
2018-02-19T03:44:52.006Z,14.83
2018-02-19T03:47:19.539Z,13.93
2018-02-19T03:49:47.099Z,15.47
2018-02-19T03:52:14.628Z,15.00
2018-02-19T03:54:42.164Z,15.17
2018-02-19T03:57:09.711Z,14.77
2018-02-19T03:59:37.241Z,14.43
2018-02-19T04:02:05.126Z,15.27
2018-02-19T04:04:32.687Z,15.23
2018-02-19T04:07:00.218Z,15.17
2018-02-19T04:09:27.814Z,14.60
2018-02-19T04:11:55.374Z,14.33
2018-02-19T04:14:22.895Z,15.10
2018-02-19T04:16:50.426Z,15.10
2018-02-19T04:19:17.981Z,15.30
2018-02-19T04:21:45.498Z,15.00
2018-02-19T04:24:13.040Z,15.33
2018-02-19T04:26:40.603Z,15.13
2018-02-19T04:29:08.131Z,16.37
2018-02-19T04:31:35.658Z,15.93
2018-02-19T04:34:03.251Z,16.20
2018-02-19T04:36:30.782Z,14.93
2018-02-19T04:38:58.397Z,15.30
2018-02-19T04:41:25.941Z,14.60
2018-02-19T04:43:53.746Z,14.80
2018-02-19T04:46:23.134Z,15.73
2018-02-19T04:48:50.691Z,16.73
2018-02-19T04:51:18.219Z,16.00
2018-02-19T04:53:45.738Z,15.80
2018-02-19T04:56:13.303Z,14.87
2018-02-19T04:58:41.159Z,15.30
2018-02-19T05:01:08.694Z,15.70
2018-02-19T05:03:36.244Z,15.23
2018-02-19T05:06:03.762Z,14.60
2018-02-19T05:08:31.610Z,15.43
2018-02-19T05:10:59.162Z,15.43
2018-02-19T05:13:26.691Z,16.50
2018-02-19T05:15:54.211Z,15.77
2018-02-19T05:18:21.770Z,15.97
2018-02-19T05:20:49.308Z,15.30
2018-02-19T05:23:17.074Z,15.33
2018-02-19T05:25:44.635Z,16.00
2018-02-19T05:28:12.164Z,16.97
2018-02-19T05:30:39.700Z,16.60
2018-02-19T05:33:07.233Z,17.00
2018-02-19T05:35:34.757Z,16.83
2018-02-19T05:38:02.279Z,17.67
2018-02-19T05:40:30.112Z,16.23
2018-02-19T05:42:57.677Z,18.87
2018-02-19T05:45:25.190Z,18.90
2018-02-19T05:47:52.751Z,17.47
2018-02-19T05:50:20.276Z,17.60
2018-02-19T05:52:47.884Z,18.60
2018-02-19T05:55:15.441Z,16.53
2018-02-19T05:57:43.237Z,17.43
2018-02-19T06:00:10.750Z,18.60
2018-02-19T06:02:38.306Z,18.43
2018-02-19T06:05:05.835Z,18.57
2018-02-19T06:07:33.350Z,18.53
2018-02-19T06:10:00.980Z,18.50
2018-02-19T06:12:28.511Z,18.27
2018-02-19T06:14:56.049Z,18.30
2018-02-19T06:17:23.608Z,18.07
2018-02-19T06:19:51.401Z,20.30
2018-02-19T06:22:19.259Z,18.43
2018-02-19T06:24:46.825Z,18.90
2018-02-19T06:27:14.354Z,18.20
2018-02-19T06:29:41.877Z,19.00
2018-02-19T06:32:09.429Z,19.10
2018-02-19T06:34:36.963Z,19.90
2018-02-19T06:37:04.483Z,18.30
2018-02-19T06:39:32.039Z,19.80
2018-02-19T06:41:59.575Z,19.60
2018-02-19T06:44:27.121Z,19.20
2018-02-19T06:46:54.673Z,18.93
2018-02-19T06:49:22.517Z,26.43
2018-02-19T06:51:50.048Z,20.37
2018-02-19T06:54:17.636Z,20.67
2018-02-19T06:56:45.513Z,19.90
2018-02-19T06:59:13.028Z,19.73
2018-02-19T07:01:40.647Z,22.30
2018-02-19T07:04:08.212Z,20.40
2018-02-19T07:06:35.766Z,21.50
2018-02-19T07:09:03.426Z,20.70
2018-02-19T07:11:31.240Z,23.80
2018-02-19T07:13:58.755Z,21.70
2018-02-19T07:16:26.294Z,22.13
2018-02-19T07:18:53.816Z,23.50
2018-02-19T07:21:21.343Z,22.10
2018-02-19T07:23:48.921Z,20.87
2018-02-19T07:26:16.465Z,20.90
2018-02-19T07:28:43.996Z,22.57
2018-02-19T07:31:11.567Z,20.87
2018-02-19T07:33:39.115Z,20.10
2018-02-19T07:36:06.641Z,20.70
2018-02-19T07:38:34.215Z,21.30
2018-02-19T07:41:01.755Z,21.80
2018-02-19T07:43:29.290Z,21.03
2018-02-19T07:45:56.847Z,22.10
2018-02-19T07:48:24.417Z,21.77
2018-02-19T07:50:51.943Z,20.87
2018-02-19T07:53:20.203Z,22.20
2018-02-19T07:55:47.990Z,21.20
2018-02-19T07:58:15.616Z,20.13
2018-02-19T08:00:43.180Z,22.03
2018-02-19T08:03:10.724Z,21.80
2018-02-19T08:05:38.258Z,19.97
2018-02-19T08:08:05.876Z,20.40
2018-02-19T08:10:33.663Z,20.63
2018-02-19T08:13:01.430Z,21.43
2018-02-19T08:15:28.981Z,21.00
2018-02-19T08:17:56.757Z,20.53
2018-02-19T08:20:24.279Z,21.30
2018-02-19T08:22:51.845Z,19.40
2018-02-19T08:25:19.379Z,19.90
2018-02-19T08:27:46.964Z,21.33
2018-02-19T08:30:14.568Z,19.90
2018-02-19T08:32:42.093Z,21.07
2018-02-19T08:35:09.618Z,20.37
2018-02-19T08:37:37.449Z,20.50
2018-02-19T08:40:05.015Z,21.60
2018-02-19T08:42:32.576Z,21.03
2018-02-19T08:45:00.137Z,20.10
2018-02-19T08:47:27.668Z,19.63
2018-02-19T08:49:55.211Z,20.73
2018-02-19T08:52:22.755Z,20.43
2018-02-19T08:54:50.288Z,19.23
2018-02-19T08:57:17.806Z,20.17
2018-02-19T08:59:45.349Z,20.20
2018-02-19T09:02:12.909Z,19.87
2018-02-19T09:04:40.739Z,20.57
2018-02-19T09:07:08.302Z,20.30
2018-02-19T09:09:35.855Z,21.07
2018-02-19T09:12:03.442Z,20.03
2018-02-19T09:14:31.268Z,19.20
2018-02-19T09:16:58.781Z,20.30
2018-02-19T09:19:26.606Z,20.23
2018-02-19T09:21:54.463Z,20.63
2018-02-19T09:24:21.995Z,20.50
2018-02-19T09:26:49.892Z,19.03
2018-02-19T09:29:17.437Z,21.30
2018-02-19T09:31:45.217Z,18.73
2018-02-19T09:34:13.004Z,19.60
2018-02-19T09:36:40.538Z,19.47
2018-02-19T09:39:08.072Z,20.93
2018-02-19T09:41:35.602Z,21.13
2018-02-19T09:44:03.157Z,20.17
2018-02-19T09:46:30.683Z,20.30
2018-02-19T09:48:58.211Z,20.13
2018-02-19T09:51:26.006Z,20.53
2018-02-19T09:53:53.535Z,20.80
2018-02-19T09:56:21.337Z,21.37
2018-02-19T09:58:48.987Z,20.60
2018-02-19T10:01:16.507Z,20.60
2018-02-19T10:03:44.025Z,19.33
2018-02-19T10:06:11.583Z,20.90
2018-02-19T10:08:39.195Z,22.70
2018-02-19T10:11:06.717Z,20.07
2018-02-19T10:13:34.291Z,20.60
2018-02-19T10:16:02.131Z,19.70
2018-02-19T10:18:29.659Z,21.07
2018-02-19T10:20:57.250Z,20.43
2018-02-19T10:23:24.777Z,23.10
2018-02-19T10:25:52.578Z,21.60
2018-02-19T10:28:20.159Z,20.40
2018-02-19T10:30:47.999Z,21.23
2018-02-19T10:33:15.546Z,21.30
2018-02-19T10:35:43.165Z,19.80
2018-02-19T10:38:10.688Z,19.90
2018-02-19T10:40:38.209Z,20.60
2018-02-19T10:43:05.773Z,19.07
2018-02-19T10:45:33.320Z,19.83
2018-02-19T10:48:01.131Z,20.00
2018-02-19T10:50:29.001Z,19.47
2018-02-19T10:52:56.867Z,22.80
2018-02-19T10:55:24.379Z,23.03
2018-02-19T10:57:52.039Z,20.43
2018-02-19T11:00:25.796Z,20.50
2018-02-19T11:02:53.347Z,21.40
2018-02-19T11:05:20.863Z,20.70
2018-02-19T11:07:52.159Z,20.60
2018-02-19T11:10:19.799Z,20.50
2018-02-19T11:12:48.155Z,21.33
2018-02-19T11:15:15.683Z,19.50
2018-02-19T11:17:43.260Z,20.37
2018-02-19T11:20:10.798Z,19.70
2018-02-19T11:22:38.360Z,21.03
2018-02-19T11:25:06.216Z,20.20
2018-02-19T11:27:33.738Z,21.90
2018-02-19T11:30:01.299Z,21.20
2018-02-19T11:32:28.909Z,20.83
2018-02-19T11:34:56.484Z,19.77
2018-02-19T11:37:24.026Z,19.80
2018-02-19T11:39:51.607Z,20.63
2018-02-19T11:42:19.173Z,18.97
2018-02-19T11:44:46.698Z,19.67
2018-02-19T11:47:14.386Z,19.00
2018-02-19T11:49:41.955Z,20.37
2018-02-19T11:52:09.509Z,20.53
2018-02-19T11:54:37.205Z,23.90
2018-02-19T11:57:04.747Z,21.13
2018-02-19T11:59:32.287Z,19.73
2018-02-19T12:01:59.845Z,23.50
2018-02-19T12:04:27.377Z,20.60
2018-02-19T12:06:54.934Z,20.20
2018-02-19T12:09:22.840Z,18.77
2018-02-19T12:11:50.391Z,19.67
2018-02-19T12:14:17.909Z,18.83
2018-02-19T12:16:45.699Z,20.00
2018-02-19T12:19:13.266Z,20.00
2018-02-19T12:21:41.036Z,20.30
2018-02-19T12:24:08.594Z,20.33
2018-02-19T12:26:36.125Z,19.93
2018-02-19T12:29:03.661Z,21.77
2018-02-19T12:31:31.216Z,19.97
2018-02-19T12:33:58.738Z,19.73
2018-02-19T12:36:26.611Z,19.93
2018-02-19T12:38:54.278Z,19.73
2018-02-19T12:41:21.799Z,19.30
2018-02-19T12:43:49.319Z,20.83
2018-02-19T12:46:16.904Z,20.27
2018-02-19T12:48:44.440Z,19.43
2018-02-19T12:51:12.023Z,18.50
2018-02-19T12:53:39.605Z,19.07
2018-02-19T12:56:07.130Z,17.60
2018-02-19T12:58:34.683Z,18.33
2018-02-19T13:01:02.291Z,19.07
2018-02-19T13:03:30.832Z,18.33
2018-02-19T13:06:00.397Z,18.30
2018-02-19T13:08:27.982Z,19.03
2018-02-19T13:10:55.523Z,18.20
2018-02-19T13:13:23.059Z,18.00
2018-02-19T13:15:50.658Z,19.57
2018-02-19T13:18:18.475Z,18.40
2018-02-19T13:20:45.985Z,17.10
2018-02-19T13:23:13.844Z,21.40
2018-02-19T13:25:41.531Z,16.60
2018-02-19T13:28:09.365Z,17.50
2018-02-19T13:30:37.233Z,17.23
2018-02-19T13:33:04.843Z,18.03
2018-02-19T13:35:32.662Z,17.17
2018-02-19T13:38:00.214Z,16.90
2018-02-19T13:40:28.090Z,16.60
2018-02-19T13:42:55.620Z,17.27
2018-02-19T13:45:23.184Z,17.77
2018-02-19T13:47:50.932Z,17.23
2018-02-19T13:50:18.464Z,17.07
2018-02-19T13:52:46.020Z,16.67
2018-02-19T13:55:13.542Z,16.77
2018-02-19T13:57:41.088Z,16.87
2018-02-19T14:00:08.649Z,15.43
2018-02-19T14:02:36.186Z,15.90
2018-02-19T14:05:03.786Z,14.77
2018-02-19T14:07:31.816Z,15.70
2018-02-19T14:09:59.340Z,16.27
2018-02-19T14:12:26.876Z,16.27
2018-02-19T14:14:54.875Z,17.30
2018-02-19T14:17:22.735Z,15.53
2018-02-19T14:19:50.263Z,16.77
2018-02-19T14:22:17.835Z,17.20
2018-02-19T14:24:46.210Z,17.40
2018-02-19T14:27:13.959Z,17.37
2018-02-19T14:29:41.656Z,16.30
2018-02-19T14:32:09.186Z,17.30
2018-02-19T14:34:37.002Z,16.97
2018-02-19T14:37:04.627Z,16.80
2018-02-19T14:39:32.553Z,17.63
2018-02-19T14:42:00.409Z,16.70
2018-02-19T14:44:28.001Z,16.77
2018-02-19T14:46:55.827Z,16.80
2018-02-19T14:49:23.347Z,17.00
2018-02-19T14:51:50.923Z,16.63
2018-02-19T14:54:20.915Z,17.00
2018-02-19T14:56:48.736Z,17.20
2018-02-19T14:59:16.325Z,17.20
2018-02-19T15:01:43.858Z,16.40
2018-02-19T15:04:11.384Z,17.27
2018-02-19T15:06:38.947Z,17.10
2018-02-19T15:09:06.733Z,17.40
2018-02-19T15:11:34.268Z,17.10
2018-02-19T15:14:01.861Z,17.07
2018-02-19T15:16:29.724Z,17.03
2018-02-19T15:18:57.284Z,17.17
2018-02-19T15:21:24.864Z,16.63
2018-02-19T15:23:52.433Z,17.30
2018-02-19T15:26:19.952Z,17.33
2018-02-19T15:28:47.512Z,17.33
2018-02-19T15:31:15.039Z,18.70
2018-02-19T15:33:42.586Z,17.40
2018-02-19T15:36:10.255Z,17.70
2018-02-19T15:38:37.787Z,16.77
2018-02-19T15:41:05.322Z,17.43
2018-02-19T15:43:32.907Z,17.17
2018-02-19T15:46:00.702Z,17.13
2018-02-19T15:48:28.328Z,16.50
2018-02-19T15:50:55.887Z,18.10
2018-02-19T15:53:23.744Z,16.90
2018-02-19T15:55:51.512Z,18.90
2018-02-19T15:58:19.078Z,19.10
2018-02-19T16:00:46.607Z,19.60
2018-02-19T16:03:14.398Z,18.27
2018-02-19T16:05:41.958Z,18.63
2018-02-19T16:08:09.822Z,18.10
2018-02-19T16:10:37.359Z,18.43
2018-02-19T16:13:04.952Z,19.50
2018-02-19T16:15:32.480Z,18.60
2018-02-19T16:18:00.007Z,18.03
2018-02-19T16:20:27.828Z,18.60
2018-02-19T16:22:55.356Z,19.20
2018-02-19T16:25:23.169Z,17.53
2018-02-19T16:27:50.730Z,18.30
2018-02-19T16:30:18.587Z,18.43
2018-02-19T16:32:46.123Z,19.23
2018-02-19T16:35:13.684Z,19.63
2018-02-19T16:37:41.469Z,19.00
2018-02-19T16:40:08.997Z,19.50
2018-02-19T16:42:36.549Z,18.57
2018-02-19T16:45:04.112Z,19.30
2018-02-19T16:47:31.932Z,19.13
2018-02-19T16:49:59.483Z,18.60
2018-02-19T16:52:27.037Z,18.50
2018-02-19T16:54:54.591Z,19.60
2018-02-19T16:57:22.226Z,19.40
2018-02-19T16:59:49.764Z,18.30
2018-02-19T17:02:17.596Z,18.17
2018-02-19T17:04:45.459Z,18.50
2018-02-19T17:07:12.987Z,19.13
2018-02-19T17:09:40.516Z,19.70
2018-02-19T17:12:08.075Z,19.47
2018-02-19T17:14:35.606Z,19.63
2018-02-19T17:17:03.150Z,18.27
2018-02-19T17:19:30.756Z,18.13
2018-02-19T17:21:58.346Z,19.67
2018-02-19T17:24:25.989Z,19.77
2018-02-19T17:26:53.561Z,19.70
2018-02-19T17:29:21.104Z,20.50
2018-02-19T17:31:48.655Z,20.43
2018-02-19T17:36:50.021Z,20.70
2018-02-19T17:39:17.586Z,19.70
2018-02-19T17:41:45.136Z,22.07
2018-02-19T17:44:12.649Z,20.10
2018-02-19T17:46:40.458Z,22.50
2018-02-19T17:49:07.995Z,32.30
2018-02-19T17:51:35.577Z,23.80
2018-02-19T17:54:03.325Z,22.30
2018-02-19T17:56:30.963Z,21.27
2018-02-19T17:58:58.502Z,22.07
2018-02-19T18:01:26.327Z,21.90
2018-02-19T18:03:53.880Z,22.87
2018-02-19T18:06:21.406Z,22.03
2018-02-19T18:08:48.969Z,21.87
2018-02-19T18:11:16.510Z,22.37
2018-02-19T18:13:44.050Z,23.37
2018-02-19T18:16:11.658Z,22.83
2018-02-19T18:18:39.255Z,24.93
2018-02-19T18:21:06.788Z,23.53
2018-02-19T18:23:34.345Z,23.23
2018-02-19T18:26:01.914Z,23.10
2018-02-19T18:28:29.480Z,22.40
2018-02-19T18:30:57.041Z,21.77
2018-02-19T18:33:24.796Z,23.17
2018-02-19T18:35:52.466Z,23.00
2018-02-19T18:38:20.162Z,24.30
2018-02-19T18:40:47.715Z,24.63
2018-02-19T18:43:15.286Z,23.70
2018-02-19T18:45:42.916Z,23.63
2018-02-19T18:48:10.448Z,23.83
2018-02-19T18:50:38.151Z,23.17
2018-02-19T18:53:05.780Z,24.90
2018-02-19T18:55:33.502Z,23.67
2018-02-19T18:58:01.076Z,23.00
2018-02-19T19:00:29.875Z,23.20
2018-02-19T19:02:57.518Z,23.30
2018-02-19T19:05:25.099Z,23.03
2018-02-19T19:08:04.454Z,24.00
2018-02-19T19:10:45.766Z,24.07
2018-02-19T19:13:13.394Z,22.70
2018-02-19T19:15:40.970Z,22.47
2018-02-19T19:18:08.522Z,23.73
2018-02-19T19:20:36.124Z,23.20
2018-02-19T19:23:03.652Z,24.20
2018-02-19T19:25:31.258Z,23.03
2018-02-19T19:27:58.833Z,26.80
2018-02-19T19:30:26.360Z,23.50
2018-02-19T19:32:53.934Z,23.57
2018-02-19T19:35:21.740Z,23.50
2018-02-19T19:37:49.550Z,21.83
2018-02-19T19:40:17.150Z,23.40
2018-02-19T19:42:44.724Z,23.60
2018-02-19T19:45:12.274Z,24.37
2018-02-19T19:47:39.811Z,24.20
2018-02-19T19:50:07.363Z,22.60
2018-02-19T19:52:34.928Z,23.57
2018-02-19T19:55:02.902Z,23.90
2018-02-19T19:57:31.347Z,23.27
2018-02-19T19:59:58.931Z,24.20
2018-02-19T20:02:26.467Z,21.60
2018-02-19T20:04:54.084Z,22.40
2018-02-19T20:07:21.642Z,22.33
2018-02-19T20:09:49.161Z,22.33
2018-02-19T20:12:17.178Z,21.63
2018-02-19T20:14:45.417Z,24.60
2018-02-19T20:17:13.142Z,21.33
2018-02-19T20:19:40.732Z,23.13
2018-02-19T20:22:08.348Z,23.73
2018-02-19T20:24:35.887Z,22.93
2018-02-19T20:27:03.740Z,23.73
2018-02-19T20:29:31.602Z,23.53
2018-02-19T20:31:59.146Z,22.73
2018-02-19T20:34:26.777Z,23.67
2018-02-19T20:36:54.411Z,22.40
2018-02-19T20:39:22.244Z,21.33
2018-02-19T20:41:49.798Z,22.37
2018-02-19T20:44:18.546Z,23.40
2018-02-19T20:46:46.073Z,23.80
2018-02-19T20:49:13.662Z,21.60
2018-02-19T20:51:41.191Z,25.20
2018-02-19T20:54:08.715Z,25.20
2018-02-19T20:56:36.303Z,25.40
2018-02-19T20:59:03.858Z,24.87
2018-02-19T21:01:31.388Z,24.27
2018-02-19T21:03:58.983Z,25.30
2018-02-19T21:06:26.524Z,23.80
2018-02-19T21:08:54.034Z,24.03
2018-02-19T21:11:21.584Z,23.57
2018-02-19T21:13:49.250Z,26.27
2018-02-19T21:16:16.779Z,24.40
2018-02-19T21:18:44.359Z,24.07
2018-02-19T21:21:11.923Z,23.70
2018-02-19T21:23:39.471Z,24.40
2018-02-19T21:26:07.019Z,23.40
2018-02-19T21:28:34.542Z,24.93
2018-02-19T21:31:02.363Z,24.03
2018-02-19T21:33:29.966Z,24.10
2018-02-19T21:35:57.580Z,24.80
2018-02-19T21:38:25.143Z,22.93
2018-02-19T21:40:52.729Z,23.10
2018-02-19T21:43:20.265Z,23.97
2018-02-19T21:45:47.774Z,22.70
2018-02-19T21:48:16.187Z,23.50
2018-02-19T21:50:44.975Z,23.77
2018-02-19T21:53:12.505Z,24.30
2018-02-19T21:55:40.077Z,23.80
2018-02-19T21:58:07.684Z,24.10
2018-02-19T22:00:35.256Z,23.43
2018-02-19T22:03:02.888Z,22.40
2018-02-19T22:05:30.677Z,22.97
2018-02-19T22:07:58.197Z,23.30
2018-02-19T22:10:26.109Z,23.27
2018-02-19T22:12:53.718Z,23.67
2018-02-19T22:15:21.247Z,23.80
2018-02-19T22:17:48.826Z,23.43
2018-02-19T22:20:16.647Z,23.83
2018-02-19T22:22:44.428Z,25.00
2018-02-19T22:25:11.999Z,25.70
2018-02-19T22:27:39.512Z,23.93
2018-02-19T22:30:07.039Z,24.57
2018-02-19T22:32:34.601Z,24.07
2018-02-19T22:35:02.124Z,25.07
2018-02-19T22:37:29.669Z,23.90
2018-02-19T22:39:57.248Z,24.90
2018-02-19T22:42:25.106Z,24.33
2018-02-19T22:44:52.640Z,26.00
2018-02-19T22:47:20.204Z,24.03
2018-02-19T22:49:47.739Z,25.10
2018-02-19T22:52:15.549Z,25.60
2018-02-19T22:54:43.158Z,25.40
2018-02-19T22:57:10.978Z,24.80
2018-02-19T22:59:38.744Z,24.50
2018-02-19T23:02:06.335Z,25.40
2018-02-19T23:04:33.922Z,24.60
2018-02-19T23:07:01.740Z,25.00
2018-02-19T23:09:29.294Z,24.10
2018-02-19T23:11:57.058Z,25.93
2018-02-19T23:14:24.827Z,23.83
2018-02-19T23:16:52.397Z,26.17
2018-02-19T23:19:19.952Z,27.20
2018-02-19T23:21:47.480Z,25.47
2018-02-19T23:24:15.066Z,24.80
2018-02-19T23:26:42.597Z,25.90
2018-02-19T23:29:10.126Z,25.30
2018-02-19T23:31:37.666Z,24.50
2018-02-19T23:34:05.627Z,25.70
2018-02-19T23:36:33.498Z,27.40
2018-02-19T23:39:01.060Z,25.63
2018-02-19T23:41:28.919Z,26.20
2018-02-19T23:43:56.780Z,27.07
2018-02-19T23:46:24.344Z,28.67
2018-02-19T23:48:52.111Z,24.83
2018-02-19T23:51:19.643Z,27.07
2018-02-19T23:53:47.195Z,28.03
2018-02-19T23:56:14.729Z,27.10
2018-02-19T23:58:42.288Z,27.53
